Time;durP1;ratioP1;P1;durP2;ratioP2;P2;SDS_P1;SDS_P2;PMS_P1;PMS_P2;Temp;Humidity;BMP_temperature;BMP_pressure;BME280_temperature;BME280_humidity;BME280_pressure;Samples;Min_cycle;Max_cycle;Signal;HPM_P1;HPM_P2
2021/12/17 00:01:00;;;;;;;14.07;10.32;;;;;;;;;;5031406;28;20021;-69
2021/12/17 00:03:36;;;;;;;15.25;9.75;;;;;;;;;;5013792;28;20451;-69
2021/12/17 00:08:37;;;;;;;15.77;11.68;;;;;;;;;;5021248;28;20075;-68
2021/12/17 00:11:03;;;;;;;19.10;10.82;;;;;;;;;;5023952;28;20033;-68
2021/12/17 00:13:28;;;;;;;16.33;9.82;;;;;;;;;;5010574;28;20014;-68
2021/12/17 00:15:53;;;;;;;16.60;10.93;;;;;;;;;;5018951;28;20071;-69
2021/12/17 00:18:50;;;;;;;16.17;9.73;;;;;;;;;;5027945;28;20017;-68
2021/12/17 00:43:55;;;;;;;14.48;10.15;;;;;;;;;;5026517;28;20401;-68
2021/12/17 00:48:52;;;;;;;15.65;10.75;;;;;;;;;;4964000;28;20030;-69
2021/12/17 00:54:07;;;;;;;16.63;11.07;;;;;;;;;;4956983;28;20116;-69
2021/12/17 00:56:33;;;;;;;21.15;12.70;;;;;;;;;;4973624;28;20042;-69
2021/12/17 00:58:58;;;;;;;19.15;12.45;;;;;;;;;;4978423;28;20516;-69
2021/12/17 01:01:25;;;;;;;21.20;12.82;;;;;;;;;;4972958;28;20133;-68
2021/12/17 01:03:50;;;;;;;19.45;12.32;;;;;;;;;;4956961;28;20130;-69
2021/12/17 01:06:15;;;;;;;16.50;11.57;;;;;;;;;;4968773;28;20030;-68
2021/12/17 01:08:41;;;;;;;16.45;12.25;;;;;;;;;;4968005;28;20031;-68
2021/12/17 01:11:07;;;;;;;21.98;14.45;;;;;;;;;;4956967;28;20049;-69
2021/12/17 01:13:32;;;;;;;23.52;14.70;;;;;;;;;;4967714;28;20023;-69
2021/12/17 01:15:58;;;;;;;22.17;15.50;;;;;;;;;;4954494;28;20147;-69
2021/12/17 01:18:34;;;;;;;25.13;15.80;;;;;;;;;;4971581;28;20026;-68
2021/12/17 01:36:50;;;;;;;25.35;16.05;;;;;;;;;;5034722;28;20272;-68
2021/12/17 01:42:05;;;;;;;25.77;17.15;;;;;;;;;;5026936;28;20131;-68
2021/12/17 01:44:31;;;;;;;27.80;18.23;;;;;;;;;;5032768;28;20036;-68
2021/12/17 01:46:56;;;;;;;27.00;16.27;;;;;;;;;;5033557;28;20099;-70
2021/12/17 02:00:19;;;;;;;22.80;15.45;;;;;;;;;;5026894;28;20026;-68
2021/12/17 02:02:49;;;;;;;21.73;14.77;;;;;;;;;;5027100;28;20146;-69
2021/12/17 02:05:15;;;;;;;23.75;14.60;;;;;;;;;;5014285;28;20018;-69
2021/12/17 02:07:42;;;;;;;21.30;14.95;;;;;;;;;;5033231;28;20021;-70
2021/12/17 02:29:02;;;;;;;20.25;14.60;;;;;;;;;;4934112;29;20074;-70
2021/12/17 02:31:32;;;;;;;20.05;14.88;;;;;;;;;;4902147;29;20170;-69
2021/12/17 02:34:02;;;;;;;23.75;14.93;;;;;;;;;;4912562;29;20083;-69
2021/12/17 02:36:30;;;;;;;23.45;15.48;;;;;;;;;;4933221;29;20027;-69
2021/12/17 02:39:47;;;;;;;22.98;15.82;;;;;;;;;;4924670;29;20097;-69
2021/12/17 02:47:29;;;;;;;21.23;14.65;;;;;;;;;;4933752;29;20146;-69
2021/12/17 02:49:54;;;;;;;20.80;14.68;;;;;;;;;;4917094;29;20047;-69
2021/12/17 02:52:20;;;;;;;22.10;14.93;;;;;;;;;;4896469;29;20031;-69
2021/12/17 02:54:46;;;;;;;20.95;15.23;;;;;;;;;;4913877;29;20023;-69
2021/12/17 02:57:11;;;;;;;21.38;15.00;;;;;;;;;;4976767;28;20041;-69
2021/12/17 02:59:37;;;;;;;21.75;15.18;;;;;;;;;;5019658;28;20509;-69
2021/12/17 03:02:03;;;;;;;21.33;14.65;;;;;;;;;;5032670;28;20040;-69
2021/12/17 03:04:29;;;;;;;20.55;14.68;;;;;;;;;;5032524;28;20021;-69
2021/12/17 03:06:55;;;;;;;24.27;15.48;;;;;;;;;;5014947;28;20021;-69
2021/12/17 03:09:32;;;;;;;22.02;14.93;;;;;;;;;;5020119;28;20118;-69
2021/12/17 03:11:57;;;;;;;24.80;15.13;;;;;;;;;;5029736;28;20394;-70
2021/12/17 03:14:23;;;;;;;24.80;15.88;;;;;;;;;;5011182;28;20040;-69
2021/12/17 03:17:00;;;;;;;24.58;16.35;;;;;;;;;;5030019;28;20034;-70
2021/12/17 03:23:26;;;;;;;25.08;14.82;;;;;;;;;;5014362;28;20426;-69
2021/12/17 03:24:54;;;;;;;24.88;15.48;;;;;;;;;;5015241;28;20504;-69
2021/12/17 03:27:19;;;;;;;23.60;16.42;;;;;;;;;;5031651;28;20034;-70
2021/12/17 03:29:44;;;;;;;26.00;15.60;;;;;;;;;;5024033;28;20116;-69
2021/12/17 03:32:09;;;;;;;24.48;16.63;;;;;;;;;;5031621;28;20117;-69
2021/12/17 03:34:35;;;;;;;25.45;16.05;;;;;;;;;;4997375;28;20044;-69
2021/12/17 03:37:00;;;;;;;25.52;17.05;;;;;;;;;;5032312;28;20029;-68
2021/12/17 03:39:26;;;;;;;26.13;16.50;;;;;;;;;;5023450;28;20045;-68
2021/12/17 03:41:52;;;;;;;26.42;16.88;;;;;;;;;;5030276;28;20104;-68
2021/12/17 03:44:18;;;;;;;25.88;16.83;;;;;;;;;;5012344;28;20588;-68
2021/12/17 03:46:46;;;;;;;25.35;16.80;;;;;;;;;;5007726;28;20047;-69
2021/12/17 03:49:11;;;;;;;25.85;16.63;;;;;;;;;;5031846;28;20044;-70
2021/12/17 03:51:47;;;;;;;26.27;16.42;;;;;;;;;;5031130;28;20029;-68
2021/12/17 03:54:12;;;;;;;26.02;16.77;;;;;;;;;;5015484;28;20035;-69
2021/12/17 03:56:37;;;;;;;26.27;17.38;;;;;;;;;;5031017;28;20112;-69
2021/12/17 03:59:10;;;;;;;25.20;16.77;;;;;;;;;;5021056;28;20018;-68
2021/12/17 04:01:35;;;;;;;24.20;16.48;;;;;;;;;;5004243;28;20031;-69
2021/12/17 04:04:00;;;;;;;26.17;17.02;;;;;;;;;;5031225;28;20017;-69
2021/12/17 04:06:25;;;;;;;28.58;16.95;;;;;;;;;;5031406;28;20021;-70
2021/12/17 04:08:51;;;;;;;26.65;17.00;;;;;;;;;;5022566;28;20025;-70
2021/12/17 04:11:19;;;;;;;29.70;17.77;;;;;;;;;;5020703;28;20462;-70
2021/12/17 04:13:51;;;;;;;27.02;16.73;;;;;;;;;;5010368;28;20021;-69
2021/12/17 04:16:22;;;;;;;28.30;16.95;;;;;;;;;;5012916;28;20017;-68
2021/12/17 04:18:47;;;;;;;26.80;16.45;;;;;;;;;;5027462;28;20079;-69
2021/12/17 04:21:15;;;;;;;28.67;16.70;;;;;;;;;;5012363;28;20033;-69
2021/12/17 04:23:41;;;;;;;25.50;17.15;;;;;;;;;;5030932;28;20021;-69
2021/12/17 04:26:06;;;;;;;25.75;17.23;;;;;;;;;;5031066;28;20037;-68
2021/12/17 04:28:32;;;;;;;30.50;16.98;;;;;;;;;;5013198;28;20021;-68
2021/12/17 04:30:57;;;;;;;25.90;16.88;;;;;;;;;;5020912;28;20095;-69
2021/12/17 04:33:22;;;;;;;25.95;15.93;;;;;;;;;;5025228;28;20516;-69
2021/12/17 04:35:47;;;;;;;28.77;17.25;;;;;;;;;;5027434;28;20045;-69
2021/12/17 04:38:15;;;;;;;25.38;16.42;;;;;;;;;;5024472;28;20049;-69
2021/12/17 04:40:43;;;;;;;26.17;16.42;;;;;;;;;;5029080;28;20474;-69
2021/12/17 04:43:19;;;;;;;25.25;16.27;;;;;;;;;;5030038;28;20547;-69
2021/12/17 04:46:13;;;;;;;25.05;16.15;;;;;;;;;;5030437;28;20038;-69
2021/12/17 04:59:34;;;;;;;25.95;15.40;;;;;;;;;;5030876;28;20064;-70
2021/12/17 05:02:01;;;;;;;25.70;17.08;;;;;;;;;;5031239;28;20453;-69
2021/12/17 05:04:27;;;;;;;26.77;16.10;;;;;;;;;;5012133;28;20030;-69
2021/12/17 05:06:52;;;;;;;26.63;16.38;;;;;;;;;;5030703;28;20032;-68
2021/12/17 05:09:38;;;;;;;27.45;15.95;;;;;;;;;;5016990;28;20030;-68
2021/12/17 05:22:55;;;;;;;25.58;15.32;;;;;;;;;;5030550;28;20037;-68
2021/12/17 05:25:21;;;;;;;26.92;15.27;;;;;;;;;;5029068;28;20022;-68
2021/12/17 05:27:46;;;;;;;27.00;16.80;;;;;;;;;;5011108;28;20467;-69
2021/12/17 05:30:12;;;;;;;30.90;18.55;;;;;;;;;;5029770;28;20028;-69
2021/12/17 05:32:37;;;;;;;32.05;19.83;;;;;;;;;;5029925;28;20089;-70
2021/12/17 05:35:02;;;;;;;34.00;19.92;;;;;;;;;;5012043;28;20044;-69
2021/12/17 05:37:27;;;;;;;31.33;19.95;;;;;;;;;;5030316;28;20045;-69
2021/12/17 05:39:53;;;;;;;34.33;17.92;;;;;;;;;;5014874;28;20390;-69
2021/12/17 05:42:19;;;;;;;37.03;21.25;;;;;;;;;;5014770;28;20365;-69
2021/12/17 05:44:51;;;;;;;35.85;19.65;;;;;;;;;;5016141;28;20484;-69
2021/12/17 05:47:16;;;;;;;32.83;19.20;;;;;;;;;;5029193;28;20501;-70
2021/12/17 05:49:41;;;;;;;35.13;20.33;;;;;;;;;;5034390;28;20029;-69
2021/12/17 05:52:06;;;;;;;31.75;18.42;;;;;;;;;;5015342;28;20061;-69
2021/12/17 05:54:32;;;;;;;34.70;19.80;;;;;;;;;;4999620;28;20124;-69
2021/12/17 05:56:57;;;;;;;38.08;20.27;;;;;;;;;;5024425;28;20473;-68
2021/12/17 05:59:23;;;;;;;33.75;20.40;;;;;;;;;;5015750;28;20402;-69
2021/12/17 06:01:48;;;;;;;39.58;21.63;;;;;;;;;;5015107;28;20048;-68
2021/12/17 06:04:13;;;;;;;37.92;21.83;;;;;;;;;;5014893;28;20037;-68
2021/12/17 06:06:40;;;;;;;40.65;21.85;;;;;;;;;;5015592;28;20029;-69
2021/12/17 06:09:08;;;;;;;37.60;20.13;;;;;;;;;;4992807;28;20095;-69
2021/12/17 06:11:34;;;;;;;34.55;18.42;;;;;;;;;;5028406;28;20021;-70
2021/12/17 06:13:59;;;;;;;27.10;15.90;;;;;;;;;;4994263;28;20025;-68
2021/12/17 06:16:24;;;;;;;37.00;20.23;;;;;;;;;;5015260;28;20036;-69
2021/12/17 06:18:49;;;;;;;29.73;16.95;;;;;;;;;;5032231;28;20018;-69
2021/12/17 06:21:17;;;;;;;34.88;19.45;;;;;;;;;;5032990;28;20033;-69
2021/12/17 06:23:42;;;;;;;26.83;14.25;;;;;;;;;;5032770;28;20100;-69
2021/12/17 06:26:07;;;;;;;33.28;19.25;;;;;;;;;;5014798;28;20124;-68
2021/12/17 06:28:32;;;;;;;36.42;19.77;;;;;;;;;;5026208;28;20489;-68
2021/12/17 06:30:57;;;;;;;38.40;20.40;;;;;;;;;;5032425;28;20034;-68
2021/12/17 06:33:23;;;;;;;34.95;20.50;;;;;;;;;;5032157;28;20036;-69
2021/12/17 06:35:48;;;;;;;35.30;20.75;;;;;;;;;;5002508;28;20037;-68
2021/12/17 06:38:13;;;;;;;39.72;21.48;;;;;;;;;;5026573;28;20041;-68
2021/12/17 06:40:40;;;;;;;31.88;19.58;;;;;;;;;;5021682;28;20042;-68
2021/12/17 06:43:05;;;;;;;38.03;20.92;;;;;;;;;;5007780;28;20030;-68
2021/12/17 06:48:05;;;;;;;37.25;21.73;;;;;;;;;;5020080;28;20026;-67
2021/12/17 06:56:58;;;;;;;34.67;19.50;;;;;;;;;;5031809;28;20055;-68
2021/12/17 07:17:21;;;;;;;31.33;18.17;;;;;;;;;;5028058;28;20073;-67
2021/12/17 07:33:08;;;;;;;36.63;20.45;;;;;;;;;;5031289;28;20448;-67
2021/12/17 07:35:44;;;;;;;33.75;20.27;;;;;;;;;;5031743;28;20025;-67
2021/12/17 07:40:54;;;;;;;32.08;18.60;;;;;;;;;;5029734;28;20091;-67
2021/12/17 07:43:29;;;;;;;34.40;21.30;;;;;;;;;;5012926;28;20104;-68
2021/12/17 07:45:54;;;;;;;29.42;18.65;;;;;;;;;;5031247;28;20014;-67
2021/12/17 07:48:20;;;;;;;29.15;17.30;;;;;;;;;;5030557;28;20104;-67
2021/12/17 07:50:46;;;;;;;31.10;17.98;;;;;;;;;;5031980;28;20489;-68
2021/12/17 07:53:11;;;;;;;28.05;17.67;;;;;;;;;;5031219;28;20038;-68
2021/12/17 07:55:36;;;;;;;31.42;18.38;;;;;;;;;;5030484;28;20025;-68
2021/12/17 07:58:02;;;;;;;31.45;19.27;;;;;;;;;;5031843;28;20254;-68
2021/12/17 08:00:27;;;;;;;31.05;18.63;;;;;;;;;;5031365;28;20032;-68
2021/12/17 08:02:52;;;;;;;31.85;17.92;;;;;;;;;;4994010;28;20033;-68
2021/12/17 08:05:18;;;;;;;33.15;18.65;;;;;;;;;;5012257;28;20021;-66
2021/12/17 08:07:43;;;;;;;26.10;16.67;;;;;;;;;;5029848;28;20100;-68
2021/12/17 08:10:09;;;;;;;30.52;17.77;;;;;;;;;;5024928;28;20026;-67
2021/12/17 08:12:35;;;;;;;29.30;18.63;;;;;;;;;;5032279;28;20461;-68
2021/12/17 08:15:00;;;;;;;32.45;20.80;;;;;;;;;;5012851;28;20022;-67
2021/12/17 08:26:24;;;;;;;29.80;19.75;;;;;;;;;;5015211;28;20024;-67
2021/12/17 08:28:28;;;;;;;33.85;20.23;;;;;;;;;;5008504;28;20084;-68
2021/12/17 08:30:54;;;;;;;30.40;19.52;;;;;;;;;;5002413;28;20025;-68
2021/12/17 08:33:21;;;;;;;29.92;19.80;;;;;;;;;;5025902;28;20021;-68
2021/12/17 08:35:46;;;;;;;29.58;18.63;;;;;;;;;;5029602;28;20418;-68
2021/12/17 08:38:24;;;;;;;30.88;18.55;;;;;;;;;;5006983;28;20045;-69
2021/12/17 08:40:50;;;;;;;30.52;20.42;;;;;;;;;;5021978;28;20025;-67
2021/12/17 08:43:15;;;;;;;29.25;18.95;;;;;;;;;;5013628;28;20076;-67
2021/12/17 08:45:40;;;;;;;30.00;19.38;;;;;;;;;;5028549;28;20022;-67
2021/12/17 08:48:05;;;;;;;31.00;19.02;;;;;;;;;;5012321;28;20539;-68
2021/12/17 08:50:31;;;;;;;30.08;18.17;;;;;;;;;;5013209;28;20095;-67
2021/12/17 08:52:56;;;;;;;34.10;19.35;;;;;;;;;;5031159;28;20036;-68
2021/12/17 08:55:21;;;;;;;28.92;19.08;;;;;;;;;;5029940;28;20065;-68
2021/12/17 08:57:46;;;;;;;29.77;19.45;;;;;;;;;;5031051;28;20390;-69
2021/12/17 09:00:12;;;;;;;33.92;20.27;;;;;;;;;;5030584;28;20648;-68
2021/12/17 09:02:39;;;;;;;33.22;19.45;;;;;;;;;;5031388;28;20485;-68
2021/12/17 09:05:05;;;;;;;25.90;16.75;;;;;;;;;;5030025;28;20021;-68
2021/12/17 09:07:30;;;;;;;26.08;16.60;;;;;;;;;;5029803;28;20486;-67
2021/12/17 09:09:55;;;;;;;28.80;17.63;;;;;;;;;;5021075;28;20025;-67
2021/12/17 09:12:21;;;;;;;28.73;17.10;;;;;;;;;;5029650;28;20033;-67
2021/12/17 09:14:46;;;;;;;26.52;16.98;;;;;;;;;;4995332;28;20104;-67
2021/12/17 09:17:11;;;;;;;30.02;18.52;;;;;;;;;;5030371;28;20033;-67
2021/12/17 09:19:37;;;;;;;25.52;16.83;;;;;;;;;;5034266;28;20167;-67
2021/12/17 09:22:02;;;;;;;22.80;14.48;;;;;;;;;;5034873;28;20097;-68
2021/12/17 09:24:27;;;;;;;25.67;17.85;;;;;;;;;;5034585;28;20104;-67
2021/12/17 09:26:53;;;;;;;26.27;17.00;;;;;;;;;;5033840;28;20100;-67
2021/12/17 09:29:19;;;;;;;27.08;17.23;;;;;;;;;;5033661;28;20057;-67
2021/12/17 09:31:44;;;;;;;27.30;16.67;;;;;;;;;;5034237;28;20053;-68
2021/12/17 09:34:10;;;;;;;29.60;17.80;;;;;;;;;;5016637;28;20022;-67
2021/12/17 09:36:35;;;;;;;34.72;19.25;;;;;;;;;;5034406;28;20223;-68
2021/12/17 09:39:00;;;;;;;29.58;18.38;;;;;;;;;;5023562;28;20048;-68
2021/12/17 09:41:26;;;;;;;30.38;17.67;;;;;;;;;;5030872;28;20478;-69
2021/12/17 09:43:52;;;;;;;31.27;18.33;;;;;;;;;;5021319;28;20482;-68
2021/12/17 09:46:18;;;;;;;31.05;19.50;;;;;;;;;;5030182;28;20052;-67
2021/12/17 09:48:44;;;;;;;29.83;17.63;;;;;;;;;;5031603;28;20356;-67
2021/12/17 09:51:09;;;;;;;30.02;17.27;;;;;;;;;;5031583;28;20099;-68
2021/12/17 09:53:35;;;;;;;25.98;15.82;;;;;;;;;;5001913;28;20038;-68
2021/12/17 09:56:01;;;;;;;25.98;16.77;;;;;;;;;;5020117;28;20108;-68
2021/12/17 09:58:26;;;;;;;30.60;17.85;;;;;;;;;;5032547;28;20026;-68
2021/12/17 10:00:51;;;;;;;29.55;18.52;;;;;;;;;;5032504;28;20100;-67
2021/12/17 10:03:17;;;;;;;25.23;15.77;;;;;;;;;;5033228;28;20390;-68
2021/12/17 10:05:44;;;;;;;26.77;16.63;;;;;;;;;;5033734;28;20500;-68
2021/12/17 10:08:14;;;;;;;26.17;18.52;;;;;;;;;;5010704;28;20083;-67
2021/12/17 10:10:44;;;;;;;26.77;17.75;;;;;;;;;;5026562;28;20148;-68
2021/12/17 10:13:13;;;;;;;25.13;15.90;;;;;;;;;;5020887;28;20071;-69
2021/12/17 10:15:40;;;;;;;27.77;17.48;;;;;;;;;;5030984;28;20036;-65
2021/12/17 10:18:05;;;;;;;25.65;15.43;;;;;;;;;;5020914;28;20029;-65
2021/12/17 10:20:33;;;;;;;22.85;15.52;;;;;;;;;;5027214;28;20108;-66
2021/12/17 10:22:59;;;;;;;26.60;16.20;;;;;;;;;;5034466;28;20031;-65
2021/12/17 10:25:26;;;;;;;27.00;16.45;;;;;;;;;;5028789;28;20036;-66
2021/12/17 10:27:55;;;;;;;26.58;17.55;;;;;;;;;;5032256;28;20021;-66
2021/12/17 10:30:21;;;;;;;24.20;15.05;;;;;;;;;;5015096;28;20022;-66
2021/12/17 10:32:54;;;;;;;29.05;17.67;;;;;;;;;;5032248;28;20364;-66
2021/12/17 10:35:21;;;;;;;23.83;15.45;;;;;;;;;;5032063;28;20044;-66
2021/12/17 10:37:51;;;;;;;24.55;16.17;;;;;;;;;;5031497;28;20030;-66
2021/12/17 10:40:18;;;;;;;25.40;14.90;;;;;;;;;;5002955;28;20029;-67
2021/12/17 10:42:52;;;;;;;24.67;16.25;;;;;;;;;;5023269;28;20028;-67
2021/12/17 10:45:24;;;;;;;22.45;15.05;;;;;;;;;;5013373;28;20375;-67
2021/12/17 10:48:25;;;;;;;23.35;15.45;;;;;;;;;;5028192;28;20036;-66
2021/12/17 10:50:59;;;;;;;24.52;15.80;;;;;;;;;;5009517;28;20025;-66
2021/12/17 10:53:25;;;;;;;27.65;17.92;;;;;;;;;;5032504;28;20029;-67
2021/12/17 10:55:50;;;;;;;27.25;17.88;;;;;;;;;;4995455;28;20497;-66
2021/12/17 10:58:16;;;;;;;26.83;15.82;;;;;;;;;;5017401;28;20030;-66
2021/12/17 11:00:45;;;;;;;25.65;17.42;;;;;;;;;;5032367;28;20116;-66
2021/12/17 11:03:10;;;;;;;28.48;18.15;;;;;;;;;;5031701;28;20033;-65
2021/12/17 11:05:35;;;;;;;23.70;16.60;;;;;;;;;;5005111;28;20029;-66
2021/12/17 11:08:00;;;;;;;27.58;17.95;;;;;;;;;;5015570;28;21964;-66
2021/12/17 11:10:31;;;;;;;28.48;17.98;;;;;;;;;;5027924;28;20033;-67
2021/12/17 11:12:56;;;;;;;26.20;17.40;;;;;;;;;;5031788;28;20025;-67
2021/12/17 11:15:26;;;;;;;27.40;18.52;;;;;;;;;;5012891;28;20087;-67
2021/12/17 11:17:52;;;;;;;27.88;18.58;;;;;;;;;;5006849;28;20441;-65
2021/12/17 11:20:20;;;;;;;29.23;18.88;;;;;;;;;;5024573;28;20033;-65
2021/12/17 11:22:46;;;;;;;29.02;17.65;;;;;;;;;;5032475;28;20021;-66
2021/12/17 11:25:12;;;;;;;27.92;17.45;;;;;;;;;;5031204;28;20025;-65
2021/12/17 11:27:38;;;;;;;28.00;18.25;;;;;;;;;;5030705;28;20335;-66
2021/12/17 11:30:05;;;;;;;27.17;18.00;;;;;;;;;;5031534;28;20029;-66
2021/12/17 11:32:30;;;;;;;27.83;17.77;;;;;;;;;;5031961;28;20031;-66
2021/12/17 11:34:55;;;;;;;24.67;16.52;;;;;;;;;;5023405;28;20025;-67
2021/12/17 11:37:21;;;;;;;28.45;17.80;;;;;;;;;;4996973;28;20029;-65
2021/12/17 11:39:48;;;;;;;29.10;18.25;;;;;;;;;;5030280;28;20030;-65
2021/12/17 11:42:24;;;;;;;27.00;16.17;;;;;;;;;;5014996;28;20018;-65
2021/12/17 11:45:22;;;;;;;26.65;16.67;;;;;;;;;;5011263;28;20363;-65
2021/12/17 11:47:38;;;;;;;25.27;17.63;;;;;;;;;;5029407;28;20041;-65
2021/12/17 11:50:05;;;;;;;22.50;14.00;;;;;;;;;;5031723;28;20025;-66
2021/12/17 11:52:32;;;;;;;24.92;16.52;;;;;;;;;;5031983;28;20084;-66
2021/12/17 11:55:18;;;;;;;25.08;17.40;;;;;;;;;;5014309;28;20029;-66
2021/12/17 11:57:43;;;;;;;22.33;15.18;;;;;;;;;;5023552;28;20439;-66
2021/12/17 12:00:13;;;;;;;23.52;15.98;;;;;;;;;;5031411;28;20108;-66
2021/12/17 12:02:46;;;;;;;26.83;16.63;;;;;;;;;;5031115;28;20112;-65
2021/12/17 12:05:31;;;;;;;21.85;14.07;;;;;;;;;;5030161;28;20496;-66
2021/12/17 12:08:16;;;;;;;24.40;15.95;;;;;;;;;;5028092;28;20060;-67
2021/12/17 12:10:41;;;;;;;24.17;16.23;;;;;;;;;;5047657;28;20021;-65
2021/12/17 12:13:07;;;;;;;24.90;16.10;;;;;;;;;;5042373;28;20373;-65
2021/12/17 12:15:33;;;;;;;27.00;16.92;;;;;;;;;;5019303;28;20083;-66
2021/12/17 12:17:58;;;;;;;21.40;15.13;;;;;;;;;;5026240;28;20038;-65
2021/12/17 12:20:38;;;;;;;26.70;15.75;;;;;;;;;;5029506;28;20026;-66
2021/12/17 12:23:13;;;;;;;25.63;15.85;;;;;;;;;;5011382;28;20025;-67
2021/12/17 12:25:38;;;;;;;21.67;15.13;;;;;;;;;;5014432;28;20112;-67
2021/12/17 12:28:03;;;;;;;24.40;15.90;;;;;;;;;;5031524;28;20092;-67
2021/12/17 12:30:39;;;;;;;23.38;15.18;;;;;;;;;;5029501;28;20026;-67
2021/12/17 12:33:05;;;;;;;23.48;15.88;;;;;;;;;;5002629;28;20076;-66
2021/12/17 12:35:31;;;;;;;22.13;15.00;;;;;;;;;;5012910;28;20028;-66
2021/12/17 12:38:15;;;;;;;24.83;15.05;;;;;;;;;;5028577;28;20620;-67
2021/12/17 12:40:45;;;;;;;21.13;13.97;;;;;;;;;;5012711;28;20109;-67
2021/12/17 12:43:30;;;;;;;23.25;14.68;;;;;;;;;;5017876;28;20025;-67
2021/12/17 12:45:55;;;;;;;21.88;14.70;;;;;;;;;;5030887;28;20013;-66
2021/12/17 12:48:38;;;;;;;22.10;13.45;;;;;;;;;;5023723;28;20029;-64
2021/12/17 12:51:17;;;;;;;22.63;13.75;;;;;;;;;;5017626;28;20172;-71
2021/12/17 12:53:47;;;;;;;21.70;14.05;;;;;;;;;;5016446;28;20032;-68
2021/12/17 12:56:16;;;;;;;23.33;14.23;;;;;;;;;;5031513;28;20029;-67
2021/12/17 12:58:44;;;;;;;19.45;14.57;;;;;;;;;;5017552;28;20036;-65
2021/12/17 13:01:10;;;;;;;22.25;14.80;;;;;;;;;;5033551;28;20035;-68
2021/12/17 13:03:37;;;;;;;23.23;14.68;;;;;;;;;;5029585;28;20034;-70
2021/12/17 13:06:02;;;;;;;21.15;14.95;;;;;;;;;;5015566;28;20025;-73
2021/12/17 13:08:30;;;;;;;24.00;14.73;;;;;;;;;;5012497;28;20044;-72
2021/12/17 13:10:58;;;;;;;22.80;13.40;;;;;;;;;;5025273;28;20060;-68
2021/12/17 13:13:31;;;;;;;21.67;13.52;;;;;;;;;;5043452;28;20025;-68
2021/12/17 13:24:07;;;;;;;23.83;14.70;;;;;;;;;;5026450;28;20048;-69
2021/12/17 13:26:33;;;;;;;19.02;13.10;;;;;;;;;;5013950;28;20470;-69
2021/12/17 13:29:00;;;;;;;23.83;14.40;;;;;;;;;;5033949;28;20029;-67
2021/12/17 13:31:29;;;;;;;20.85;14.40;;;;;;;;;;5033844;28;20029;-69
2021/12/17 13:33:55;;;;;;;18.83;12.70;;;;;;;;;;5034487;28;20125;-69
2021/12/17 13:36:20;;;;;;;21.30;13.45;;;;;;;;;;5033790;28;20116;-68
2021/12/17 13:38:45;;;;;;;20.80;13.77;;;;;;;;;;5025138;28;20048;-68
2021/12/17 13:41:10;;;;;;;20.40;13.20;;;;;;;;;;5030282;28;20041;-69
2021/12/17 13:43:39;;;;;;;19.25;12.98;;;;;;;;;;5032267;28;20021;-67
2021/12/17 13:46:05;;;;;;;18.35;12.23;;;;;;;;;;5031349;28;20223;-68
2021/12/17 13:48:31;;;;;;;17.90;11.95;;;;;;;;;;5033800;28;20064;-68
2021/12/17 13:50:56;;;;;;;18.95;11.60;;;;;;;;;;5016614;28;20057;-68
2021/12/17 13:53:21;;;;;;;19.02;12.60;;;;;;;;;;5030142;28;20064;-68
2021/12/17 13:55:48;;;;;;;19.10;11.70;;;;;;;;;;5032892;28;20056;-69
2021/12/17 13:58:14;;;;;;;20.35;12.70;;;;;;;;;;5034065;28;20025;-68
2021/12/17 14:00:40;;;;;;;19.85;11.65;;;;;;;;;;5013043;28;20037;-68
2021/12/17 14:03:09;;;;;;;19.38;11.05;;;;;;;;;;5015743;28;20029;-67
2021/12/17 14:05:47;;;;;;;20.13;12.45;;;;;;;;;;5012534;28;20083;-67
2021/12/17 14:08:14;;;;;;;18.05;11.32;;;;;;;;;;5015332;28;20032;-68
2021/12/17 14:10:40;;;;;;;20.70;12.40;;;;;;;;;;5042913;28;20063;-68
2021/12/17 14:13:14;;;;;;;18.23;12.02;;;;;;;;;;5035897;28;20033;-69
2021/12/17 14:15:40;;;;;;;21.88;12.85;;;;;;;;;;5023449;28;20029;-68
2021/12/17 14:18:06;;;;;;;21.55;13.02;;;;;;;;;;5034431;28;20034;-67
2021/12/17 14:20:37;;;;;;;19.23;12.48;;;;;;;;;;5015343;28;20032;-68
2021/12/17 14:23:21;;;;;;;20.98;12.25;;;;;;;;;;5032339;28;20359;-68
2021/12/17 14:25:51;;;;;;;17.98;11.70;;;;;;;;;;5032253;28;20037;-67
2021/12/17 14:28:21;;;;;;;18.83;11.90;;;;;;;;;;5033173;28;20209;-68
2021/12/17 14:30:57;;;;;;;18.95;12.40;;;;;;;;;;5031229;28;20190;-68
2021/12/17 14:33:23;;;;;;;19.27;11.82;;;;;;;;;;5020431;28;20096;-68
2021/12/17 14:35:50;;;;;;;20.25;11.38;;;;;;;;;;5027781;28;20493;-68
2021/12/17 14:38:17;;;;;;;18.40;11.52;;;;;;;;;;5026062;28;20037;-67
2021/12/17 14:40:52;;;;;;;15.32;10.73;;;;;;;;;;5014104;28;20096;-67
2021/12/17 14:43:18;;;;;;;16.67;10.32;;;;;;;;;;5032369;28;20017;-70
2021/12/17 14:45:50;;;;;;;13.52;9.43;;;;;;;;;;5031918;28;20482;-69
2021/12/17 14:48:17;;;;;;;15.30;9.90;;;;;;;;;;5020810;28;20022;-69
2021/12/17 15:00:15;;;;;;;14.40;9.30;;;;;;;;;;5029666;28;20588;-67
2021/12/17 15:02:13;;;;;;;14.57;9.18;;;;;;;;;;5004004;28;20030;-68
2021/12/17 15:04:39;;;;;;;13.85;9.20;;;;;;;;;;5029405;28;20107;-68
2021/12/17 15:07:05;;;;;;;15.30;9.85;;;;;;;;;;5029828;28;20474;-68
2021/12/17 15:09:35;;;;;;;16.67;10.20;;;;;;;;;;5023895;28;20386;-67
2021/12/17 15:12:01;;;;;;;14.23;9.32;;;;;;;;;;5024203;28;20437;-67
2021/12/17 15:14:27;;;;;;;14.88;10.05;;;;;;;;;;5046366;28;20028;-68
2021/12/17 15:16:53;;;;;;;16.60;9.77;;;;;;;;;;5029566;28;20018;-68
2021/12/17 15:19:18;;;;;;;14.52;9.68;;;;;;;;;;5025344;28;20060;-67
2021/12/17 15:21:43;;;;;;;16.00;9.48;;;;;;;;;;5023223;28;20505;-69
2021/12/17 15:24:09;;;;;;;13.90;8.98;;;;;;;;;;5011701;28;20032;-69
2021/12/17 15:26:34;;;;;;;15.13;9.75;;;;;;;;;;5007188;28;20026;-68
2021/12/17 15:28:59;;;;;;;15.82;10.10;;;;;;;;;;5021158;28;20108;-69
2021/12/17 15:31:24;;;;;;;14.65;9.75;;;;;;;;;;5022894;28;20021;-68
2021/12/17 15:33:49;;;;;;;16.10;10.63;;;;;;;;;;5020577;28;20478;-68
2021/12/17 15:36:15;;;;;;;15.05;9.55;;;;;;;;;;5001885;28;20402;-68
2021/12/17 15:38:40;;;;;;;17.05;10.52;;;;;;;;;;5023880;28;20430;-68
2021/12/17 15:41:05;;;;;;;16.67;10.85;;;;;;;;;;5034240;28;20545;-68
2021/12/17 15:43:30;;;;;;;15.90;9.93;;;;;;;;;;5024217;28;20553;-69
2021/12/17 15:45:56;;;;;;;16.17;10.48;;;;;;;;;;5021814;28;20022;-68
2021/12/17 15:48:22;;;;;;;16.90;10.10;;;;;;;;;;5025309;28;20025;-68
2021/12/17 15:50:48;;;;;;;22.00;11.23;;;;;;;;;;5020171;28;20129;-68
2021/12/17 15:53:13;;;;;;;16.50;10.75;;;;;;;;;;5012363;28;20108;-68
2021/12/17 15:55:40;;;;;;;19.50;10.95;;;;;;;;;;5020719;28;20044;-68
2021/12/17 15:58:05;;;;;;;16.77;10.55;;;;;;;;;;5012699;28;20108;-68
2021/12/17 16:00:33;;;;;;;20.60;11.32;;;;;;;;;;5027547;28;20128;-68
2021/12/17 16:03:00;;;;;;;17.67;11.43;;;;;;;;;;5027911;28;20921;-68
2021/12/17 16:05:26;;;;;;;16.05;11.10;;;;;;;;;;5026793;28;20029;-68
2021/12/17 16:07:52;;;;;;;16.55;10.80;;;;;;;;;;5015673;28;20395;-73
2021/12/17 16:18:56;;;;;;;18.83;12.70;;;;;;;;;;5007304;28;20040;-74
2021/12/17 16:21:22;;;;;;;20.98;13.00;;;;;;;;;;5020133;28;20482;-69
2021/12/17 16:23:52;;;;;;;19.48;13.40;;;;;;;;;;5022470;28;20064;-68
2021/12/17 16:26:18;;;;;;;22.10;13.90;;;;;;;;;;5021961;28;20117;-69
2021/12/17 16:28:45;;;;;;;21.20;13.55;;;;;;;;;;5022379;28;20045;-69
2021/12/17 16:31:19;;;;;;;20.92;13.75;;;;;;;;;;5020094;28;20018;-68
2021/12/17 16:33:45;;;;;;;22.40;14.55;;;;;;;;;;5026020;28;20047;-68
2021/12/17 16:36:10;;;;;;;21.88;14.05;;;;;;;;;;5028681;28;20478;-68
2021/12/17 16:38:36;;;;;;;20.90;13.63;;;;;;;;;;5028886;28;20421;-68
2021/12/17 16:41:02;;;;;;;21.25;13.65;;;;;;;;;;5028941;28;20040;-69
2021/12/17 16:43:28;;;;;;;21.58;15.25;;;;;;;;;;5029707;28;20025;-66
2021/12/17 16:46:05;;;;;;;23.25;15.77;;;;;;;;;;5025904;28;20063;-66
2021/12/17 16:48:34;;;;;;;25.45;16.05;;;;;;;;;;5028654;28;20093;-66
2021/12/17 16:50:59;;;;;;;22.77;15.48;;;;;;;;;;5023854;28;20116;-68
2021/12/17 16:53:25;;;;;;;25.20;16.00;;;;;;;;;;5020252;28;20567;-66
2021/12/17 16:55:50;;;;;;;26.88;16.40;;;;;;;;;;5018289;28;20029;-67
2021/12/17 16:58:15;;;;;;;27.00;16.92;;;;;;;;;;5021184;28;20470;-67
2021/12/17 17:00:40;;;;;;;26.17;16.90;;;;;;;;;;5006655;28;20066;-66
2021/12/17 17:03:06;;;;;;;26.17;15.75;;;;;;;;;;5023741;28;20048;-68
2021/12/17 17:05:32;;;;;;;23.25;15.80;;;;;;;;;;5023148;28;20026;-69
2021/12/17 17:07:58;;;;;;;25.33;16.45;;;;;;;;;;5015647;28;20560;-69
2021/12/17 17:10:28;;;;;;;26.42;16.77;;;;;;;;;;5007734;28;20113;-68
2021/12/17 17:12:58;;;;;;;26.40;16.23;;;;;;;;;;4991516;28;20117;-74
2021/12/17 17:15:24;;;;;;;25.30;15.90;;;;;;;;;;5016971;28;20101;-70
2021/12/17 17:17:49;;;;;;;23.83;16.05;;;;;;;;;;5014504;28;20108;-68
2021/12/17 17:20:15;;;;;;;23.33;15.15;;;;;;;;;;5020804;28;20112;-69
2021/12/17 17:22:40;;;;;;;23.88;16.15;;;;;;;;;;5003089;28;20022;-70
2021/12/17 17:25:05;;;;;;;28.10;17.75;;;;;;;;;;5021243;28;20029;-69
2021/12/17 17:27:31;;;;;;;25.08;16.88;;;;;;;;;;5021886;28;20115;-69